createdAt,value
2018-08-22T00:00:10.549Z,99.90
2018-08-22T00:02:39.861Z,99.90
2018-08-22T00:05:09.622Z,99.90
2018-08-22T00:07:38.845Z,99.90
2018-08-22T00:10:08.270Z,99.90
2018-08-22T00:12:37.508Z,99.90
2018-08-22T00:15:06.694Z,99.90
2018-08-22T00:17:35.873Z,99.90
2018-08-22T00:20:05.388Z,99.90
2018-08-22T00:22:34.675Z,99.90
2018-08-22T00:25:03.772Z,99.90
2018-08-22T00:27:32.937Z,99.90
2018-08-22T00:30:02.510Z,99.90
2018-08-22T00:32:31.622Z,99.90
2018-08-22T00:35:00.778Z,99.90
2018-08-22T00:37:30.146Z,99.90
2018-08-22T00:39:59.384Z,99.90
2018-08-22T00:42:28.471Z,99.90
2018-08-22T00:47:54.928Z,99.90
2018-08-22T00:50:24.083Z,99.90
2018-08-22T00:52:53.236Z,99.90
2018-08-22T00:55:22.496Z,99.90
2018-08-22T00:57:51.871Z,99.90
2018-08-22T01:00:21.081Z,99.90
2018-08-22T01:02:50.396Z,99.90
2018-08-22T01:05:19.639Z,99.90
2018-08-22T01:07:48.840Z,99.90
2018-08-22T01:10:17.876Z,99.90
2018-08-22T01:12:46.921Z,99.90
2018-08-22T01:15:16.010Z,99.90
2018-08-22T01:17:45.246Z,99.90
2018-08-22T01:20:14.542Z,99.90
2018-08-22T01:22:43.860Z,99.90
2018-08-22T01:25:14.370Z,99.90
2018-08-22T01:27:45.097Z,99.90
2018-08-22T01:30:14.428Z,99.90
2018-08-22T01:32:43.810Z,99.90
2018-08-22T01:35:13.082Z,99.90
2018-08-22T01:37:42.395Z,99.90
2018-08-22T01:40:11.769Z,99.90
2018-08-22T01:42:41.037Z,99.90
2018-08-22T01:45:10.470Z,99.90
2018-08-22T01:47:39.568Z,99.90
2018-08-22T01:50:09.172Z,99.90
2018-08-22T01:52:38.395Z,99.90
2018-08-22T01:55:07.885Z,99.90
2018-08-22T01:57:37.425Z,99.90
2018-08-22T02:00:07.769Z,99.90
2018-08-22T02:02:37.780Z,99.90
2018-08-22T02:05:07.251Z,99.90
2018-08-22T02:07:36.478Z,99.90
2018-08-22T02:10:06.583Z,99.90
2018-08-22T02:12:36.026Z,99.90
2018-08-22T02:15:06.287Z,99.90
2018-08-22T02:17:35.816Z,99.90
2018-08-22T02:20:05.677Z,99.90
2018-08-22T02:22:34.950Z,99.90
2018-08-22T02:25:04.374Z,99.90
2018-08-22T02:27:33.638Z,99.90
2018-08-22T02:30:02.891Z,99.90
2018-08-22T02:32:32.122Z,99.90
2018-08-22T02:35:01.905Z,99.90
2018-08-22T02:37:31.761Z,99.90
2018-08-22T02:40:01.140Z,99.90
2018-08-22T02:42:30.681Z,99.90
2018-08-22T02:44:59.904Z,99.90
2018-08-22T02:47:29.373Z,99.90
2018-08-22T02:49:58.948Z,99.90
2018-08-22T02:52:28.381Z,99.90
2018-08-22T02:54:57.916Z,99.90
2018-08-22T02:57:27.448Z,99.90
2018-08-22T02:59:57.017Z,99.90
2018-08-22T03:02:26.765Z,99.90
2018-08-22T03:04:56.541Z,99.90
2018-08-22T03:07:26.350Z,99.90
2018-08-22T03:09:56.182Z,99.90
2018-08-22T03:12:25.522Z,99.90
2018-08-22T03:14:55.063Z,99.90
2018-08-22T03:17:24.365Z,99.90
2018-08-22T03:19:53.732Z,99.90
2018-08-22T03:22:22.934Z,99.90
2018-08-22T03:24:52.566Z,99.90
2018-08-22T03:27:21.876Z,99.90
2018-08-22T03:29:51.417Z,99.90
2018-08-22T03:32:20.677Z,99.90
2018-08-22T03:34:49.945Z,99.90
2018-08-22T03:37:19.188Z,99.90
2018-08-22T03:39:48.594Z,99.90
2018-08-22T03:42:17.888Z,99.90
2018-08-22T03:44:47.031Z,99.90
2018-08-22T03:47:16.443Z,99.90
2018-08-22T03:49:46.305Z,99.90
2018-08-22T03:52:16.099Z,99.90
2018-08-22T03:54:45.712Z,99.90
2018-08-22T03:57:14.834Z,99.90
2018-08-22T03:59:44.722Z,99.90
2018-08-22T04:02:14.152Z,99.90
2018-08-22T04:04:43.586Z,99.90
2018-08-22T04:07:12.754Z,99.90
2018-08-22T04:09:42.306Z,99.90
2018-08-22T04:12:12.672Z,99.90
2018-08-22T04:14:42.063Z,99.90
2018-08-22T04:17:11.799Z,99.90
2018-08-22T04:19:41.249Z,99.90
2018-08-22T04:22:10.599Z,99.90
2018-08-22T04:24:40.102Z,99.90
2018-08-22T04:27:09.503Z,99.90
2018-08-22T04:29:38.609Z,99.90
2018-08-22T04:32:07.912Z,99.90
2018-08-22T04:34:36.980Z,99.90
2018-08-22T04:37:06.468Z,99.90
2018-08-22T04:39:35.985Z,99.90
2018-08-22T04:42:05.640Z,99.90
2018-08-22T04:44:35.332Z,99.90
2018-08-22T04:47:05.156Z,99.90
2018-08-22T04:49:34.550Z,99.90
2018-08-22T04:52:04.316Z,99.90
2018-08-22T04:54:34.212Z,99.90
2018-08-22T04:57:04.139Z,99.90
2018-08-22T04:59:33.439Z,99.90
2018-08-22T05:02:02.752Z,99.90
2018-08-22T05:04:32.046Z,99.90
2018-08-22T05:07:01.391Z,99.90
2018-08-22T05:09:30.692Z,99.90
2018-08-22T05:11:59.875Z,99.90
2018-08-22T05:14:28.925Z,99.90
2018-08-22T05:16:57.991Z,99.90
2018-08-22T05:19:27.040Z,99.90
2018-08-22T05:21:56.089Z,99.90
2018-08-22T05:24:25.336Z,99.90
2018-08-22T05:26:54.619Z,99.90
2018-08-22T05:29:24.147Z,99.90
2018-08-22T05:31:53.999Z,99.90
2018-08-22T05:34:23.686Z,99.90
2018-08-22T05:36:53.294Z,99.90
2018-08-22T05:39:22.497Z,99.90
2018-08-22T05:41:51.653Z,99.90
2018-08-22T05:44:20.821Z,99.90
2018-08-22T05:46:50.185Z,99.90
2018-08-22T05:49:19.361Z,99.90
2018-08-22T05:51:48.620Z,99.90
2018-08-22T05:54:18.004Z,99.90
2018-08-22T05:56:47.264Z,99.90
2018-08-22T05:59:16.945Z,99.90
2018-08-22T06:01:46.192Z,99.90
2018-08-22T06:04:15.783Z,99.90
2018-08-22T06:06:45.014Z,99.90
2018-08-22T06:09:14.519Z,99.90
2018-08-22T06:11:44.713Z,99.90
2018-08-22T06:14:14.589Z,99.90
2018-08-22T06:16:43.899Z,99.90
2018-08-22T06:19:13.498Z,99.90
2018-08-22T06:21:43.239Z,99.90
2018-08-22T06:24:12.596Z,99.90
2018-08-22T06:26:42.035Z,99.90
2018-08-22T06:29:12.106Z,99.90
2018-08-22T06:31:41.920Z,99.90
2018-08-22T06:34:11.367Z,99.90
2018-08-22T06:36:40.653Z,99.90
2018-08-22T06:39:11.339Z,99.90
2018-08-22T06:41:41.265Z,99.90
2018-08-22T06:44:10.978Z,99.90
2018-08-22T06:46:40.355Z,99.90
2018-08-22T06:49:10.019Z,99.90
2018-08-22T06:51:39.404Z,99.90
2018-08-22T06:54:09.061Z,99.90
2018-08-22T06:56:38.472Z,99.90
2018-08-22T06:59:07.925Z,99.90
2018-08-22T07:01:37.947Z,99.90
2018-08-22T07:04:07.610Z,99.90
2018-08-22T07:06:36.821Z,99.90
2018-08-22T07:09:08.871Z,99.90
2018-08-22T07:11:38.427Z,99.90
2018-08-22T07:14:08.363Z,99.90
2018-08-22T07:16:37.501Z,99.90
2018-08-22T07:19:06.801Z,99.90
2018-08-22T07:21:36.250Z,98.00
2018-08-22T07:24:06.000Z,99.20
2018-08-22T07:26:35.305Z,99.30
2018-08-22T07:29:05.065Z,98.20
2018-08-22T07:31:34.555Z,96.00
2018-08-22T07:34:04.037Z,95.30
2018-08-22T07:36:33.751Z,93.40
2018-08-22T07:39:03.310Z,91.30
2018-08-22T07:41:32.717Z,91.30
2018-08-22T07:44:02.088Z,91.20
2018-08-22T07:46:31.508Z,91.30
2018-08-22T07:49:01.050Z,91.30
2018-08-22T07:51:30.261Z,88.40
2018-08-22T07:53:59.520Z,87.70
2018-08-22T07:56:29.075Z,86.10
2018-08-22T07:59:11.022Z,83.70
2018-08-22T08:01:40.525Z,86.20
2018-08-22T08:04:11.242Z,82.10
2018-08-22T08:06:41.133Z,85.60
2018-08-22T08:09:13.900Z,82.40
2018-08-22T08:11:43.062Z,84.10
2018-08-22T08:14:12.738Z,83.70
2018-08-22T08:16:41.809Z,83.10
2018-08-22T08:19:11.508Z,79.60
2018-08-22T08:21:41.348Z,78.90
2018-08-22T08:24:10.662Z,78.50
2018-08-22T08:26:39.970Z,73.50
2018-08-22T08:31:32.581Z,75.80
2018-08-22T08:34:01.832Z,74.10
2018-08-22T08:36:31.104Z,74.70
2018-08-22T08:39:00.381Z,73.80
2018-08-22T08:41:29.683Z,70.30
2018-08-22T08:43:58.933Z,74.70
2018-08-22T08:46:28.296Z,70.90
2018-08-22T08:48:57.536Z,71.80
2018-08-22T08:51:27.537Z,68.20
2018-08-22T08:53:56.728Z,70.00
2018-08-22T08:56:26.030Z,70.20
2018-08-22T08:58:55.359Z,71.10
2018-08-22T09:01:24.664Z,72.50
2018-08-22T09:03:53.920Z,70.20
2018-08-22T09:06:23.237Z,69.20
2018-08-22T09:08:52.456Z,71.60
2018-08-22T09:11:22.208Z,72.40
2018-08-22T09:13:57.183Z,72.50
2018-08-22T09:16:26.398Z,72.60
2018-08-22T09:18:55.962Z,73.10
2018-08-22T09:21:25.557Z,74.40
2018-08-22T09:23:54.923Z,72.80
2018-08-22T09:26:24.498Z,75.40
2018-08-22T09:28:53.908Z,74.10
2018-08-22T09:31:23.227Z,73.90
2018-08-22T09:33:52.772Z,74.80
2018-08-22T09:36:22.588Z,71.90
2018-08-22T09:38:51.948Z,70.60
2018-08-22T09:41:21.523Z,69.00
2018-08-22T09:43:51.010Z,70.50
2018-08-22T09:46:20.344Z,70.50
2018-08-22T09:48:49.655Z,69.00
2018-08-22T09:51:19.169Z,64.70
2018-08-22T09:53:48.389Z,69.20
2018-08-22T09:56:17.802Z,65.80
2018-08-22T09:58:46.952Z,65.10
2018-08-22T10:01:21.415Z,62.80
2018-08-22T10:03:58.310Z,63.80
2018-08-22T10:06:43.128Z,60.60
2018-08-22T10:09:21.049Z,60.30
2018-08-22T10:11:50.149Z,63.70
2018-08-22T10:14:19.310Z,61.40
2018-08-22T10:16:48.545Z,62.60
2018-08-22T10:19:18.061Z,59.20
2018-08-22T10:21:48.513Z,59.00
2018-08-22T10:24:17.634Z,59.20
2018-08-22T10:26:46.884Z,59.50
2018-08-22T10:29:16.080Z,58.00
2018-08-22T10:31:45.353Z,57.40
2018-08-22T10:34:14.422Z,54.70
2018-08-22T10:36:43.764Z,56.10
2018-08-22T10:39:12.910Z,60.10
2018-08-22T10:41:41.986Z,57.40
2018-08-22T10:44:11.089Z,57.40
2018-08-22T10:46:40.834Z,54.90
2018-08-22T10:49:10.258Z,54.60
2018-08-22T10:51:39.630Z,52.40
2018-08-22T10:54:08.958Z,52.50
2018-08-22T10:56:38.174Z,54.20
2018-08-22T10:59:07.598Z,52.90
2018-08-22T11:01:36.981Z,51.90
2018-08-22T11:04:06.297Z,51.40
2018-08-22T11:06:35.562Z,51.00
2018-08-22T11:09:07.524Z,51.80
2018-08-22T11:11:36.828Z,48.90
2018-08-22T11:14:06.301Z,50.30
2018-08-22T11:16:35.563Z,50.30
2018-08-22T11:19:05.389Z,53.20
2018-08-22T11:21:46.065Z,55.50
2018-08-22T11:24:26.824Z,52.90
2018-08-22T11:27:07.390Z,56.40
2018-08-22T11:29:48.011Z,55.40
2018-08-22T11:32:28.519Z,55.20
2018-08-22T11:34:56.727Z,55.00
2018-08-22T11:37:26.769Z,54.00
2018-08-22T11:39:56.276Z,54.70
2018-08-22T11:42:26.029Z,54.30
2018-08-22T11:44:55.706Z,50.50
2018-08-22T11:47:24.945Z,51.10
2018-08-22T11:49:54.547Z,53.50
2018-08-22T11:52:24.034Z,55.10
2018-08-22T11:54:53.226Z,49.60
2018-08-22T11:57:22.632Z,52.70
2018-08-22T11:59:51.792Z,51.70
2018-08-22T12:02:20.893Z,51.50
2018-08-22T12:04:49.926Z,50.90
2018-08-22T12:07:19.144Z,50.40
2018-08-22T12:09:48.427Z,53.20
2018-08-22T12:12:17.668Z,51.00
2018-08-22T12:14:46.948Z,53.00
2018-08-22T12:17:16.184Z,54.40
2018-08-22T12:19:45.403Z,54.30
2018-08-22T12:22:14.686Z,55.60
2018-08-22T12:24:43.817Z,56.80
2018-08-22T12:27:12.992Z,51.00
2018-08-22T12:29:42.339Z,53.40
2018-08-22T12:32:11.515Z,52.20
2018-08-22T12:34:40.979Z,51.10
2018-08-22T12:37:10.227Z,51.00
2018-08-22T12:39:39.400Z,50.60
2018-08-22T12:42:08.440Z,48.70
2018-08-22T12:44:37.631Z,52.70
2018-08-22T12:47:06.897Z,52.00
2018-08-22T12:49:36.269Z,50.00
2018-08-22T12:52:05.310Z,52.60
2018-08-22T12:54:34.603Z,52.90
2018-08-22T12:57:04.661Z,50.00
2018-08-22T12:59:34.260Z,53.20
2018-08-22T13:02:03.386Z,51.90
2018-08-22T13:04:32.750Z,48.40
2018-08-22T13:07:02.470Z,47.10
2018-08-22T13:09:32.097Z,46.10
2018-08-22T13:12:01.349Z,47.00
2018-08-22T13:14:30.688Z,52.70
2018-08-22T13:16:59.936Z,46.00
2018-08-22T13:19:29.208Z,42.90
2018-08-22T13:21:58.379Z,46.90
2018-08-22T13:24:27.895Z,50.30
2018-08-22T13:26:57.611Z,51.60
2018-08-22T13:29:27.069Z,49.10
2018-08-22T13:31:57.588Z,46.00
2018-08-22T13:34:26.767Z,53.00
2018-08-22T13:36:56.183Z,50.00
2018-08-22T13:39:25.643Z,52.60
2018-08-22T13:41:54.760Z,56.30
2018-08-22T13:44:24.039Z,47.30
2018-08-22T13:46:53.648Z,51.60
2018-08-22T13:49:22.757Z,55.60
2018-08-22T13:51:52.280Z,57.20
2018-08-22T13:54:21.763Z,51.40
2018-08-22T13:56:51.261Z,58.40
2018-08-22T13:59:20.583Z,51.20
2018-08-22T14:01:50.149Z,54.80
2018-08-22T14:04:19.665Z,56.00
2018-08-22T14:06:49.291Z,54.40
2018-08-22T14:09:19.516Z,54.30
2018-08-22T14:11:48.760Z,49.50
2018-08-22T14:14:17.984Z,52.20
2018-08-22T14:16:47.204Z,53.10
2018-08-22T14:19:16.271Z,54.60
2018-08-22T14:21:46.143Z,55.80
2018-08-22T14:24:15.847Z,59.50
2018-08-22T14:26:45.100Z,55.70
2018-08-22T14:29:14.180Z,56.50
2018-08-22T14:31:43.549Z,56.50
2018-08-22T14:34:12.718Z,66.80
2018-08-22T14:36:41.978Z,56.40
2018-08-22T14:39:12.475Z,58.20
2018-08-22T14:41:42.197Z,56.30
2018-08-22T14:44:11.488Z,57.30
2018-08-22T14:46:40.967Z,68.30
2018-08-22T14:49:10.293Z,71.30
2018-08-22T14:51:39.409Z,60.20
2018-08-22T14:54:08.873Z,63.10
2018-08-22T14:56:38.258Z,58.30
2018-08-22T14:59:07.724Z,60.50
2018-08-22T15:01:37.857Z,58.60
2018-08-22T15:04:07.316Z,57.10
2018-08-22T15:06:36.606Z,62.90
2018-08-22T15:09:12.400Z,59.90
2018-08-22T15:11:42.412Z,61.20
2018-08-22T15:14:11.871Z,60.60
2018-08-22T15:16:41.237Z,63.80
2018-08-22T15:19:10.851Z,59.90
2018-08-22T15:21:40.151Z,58.80
2018-08-22T15:24:09.421Z,56.30
2018-08-22T15:26:38.699Z,60.80
2018-08-22T15:29:07.952Z,63.40
2018-08-22T15:31:37.645Z,58.10
2018-08-22T15:34:07.116Z,63.20
2018-08-22T15:36:37.140Z,61.30
2018-08-22T15:39:08.314Z,67.00
2018-08-22T15:41:37.424Z,62.90
2018-08-22T15:44:06.797Z,66.40
2018-08-22T15:46:36.032Z,68.50
2018-08-22T15:49:05.318Z,73.70
2018-08-22T15:51:34.833Z,72.30
2018-08-22T15:54:15.094Z,61.50
2018-08-22T15:56:44.637Z,71.60
2018-08-22T15:59:14.167Z,67.70
2018-08-22T16:01:43.408Z,66.70
2018-08-22T16:04:12.628Z,65.80
2018-08-22T16:06:41.876Z,62.40
2018-08-22T16:09:17.707Z,76.40
2018-08-22T16:11:47.013Z,72.80
2018-08-22T16:14:16.230Z,75.40
2018-08-22T16:16:45.476Z,81.60
2018-08-22T16:19:14.662Z,73.60
2018-08-22T16:21:43.834Z,71.20
2018-08-22T16:24:13.342Z,69.70
2018-08-22T16:26:42.359Z,74.30
2018-08-22T16:29:11.709Z,67.30
2018-08-22T16:31:44.907Z,81.40
2018-08-22T16:34:14.979Z,79.90
2018-08-22T16:36:44.344Z,87.80
2018-08-22T16:39:13.479Z,72.50
2018-08-22T16:41:42.727Z,90.10
2018-08-22T16:44:12.135Z,81.60
2018-08-22T16:46:41.585Z,81.00
2018-08-22T16:49:12.138Z,77.10
2018-08-22T16:51:41.446Z,92.10
2018-08-22T16:54:10.961Z,92.20
2018-08-22T16:56:40.468Z,83.30
2018-08-22T16:59:11.699Z,85.40
2018-08-22T17:01:49.385Z,83.20
2018-08-22T17:04:18.592Z,92.00
2018-08-22T17:06:48.129Z,86.30
2018-08-22T17:09:17.644Z,92.10
2018-08-22T17:11:47.070Z,85.10
2018-08-22T17:14:16.590Z,92.00
2018-08-22T17:16:45.725Z,92.00
2018-08-22T17:19:14.930Z,81.70
2018-08-22T17:21:44.189Z,89.50
2018-08-22T17:24:13.372Z,92.00
2018-08-22T17:26:42.822Z,92.00
2018-08-22T17:29:12.830Z,93.60
2018-08-22T17:31:42.778Z,96.20
2018-08-22T17:34:12.175Z,95.30
2018-08-22T17:36:41.341Z,99.10
2018-08-22T17:39:10.609Z,99.90
2018-08-22T17:41:40.151Z,99.90
2018-08-22T17:44:10.601Z,99.90
2018-08-22T17:46:45.837Z,99.60
2018-08-22T17:49:15.217Z,99.90
2018-08-22T17:52:01.267Z,99.90
2018-08-22T17:54:30.485Z,99.90
2018-08-22T17:57:11.468Z,99.90
2018-08-22T17:59:41.687Z,99.90
2018-08-22T18:02:11.148Z,99.90
2018-08-22T18:04:51.250Z,99.90
2018-08-22T18:07:20.439Z,99.90
2018-08-22T18:09:50.328Z,99.90
2018-08-22T18:12:22.147Z,99.90
2018-08-22T18:14:51.232Z,99.90
2018-08-22T18:17:20.915Z,99.90
2018-08-22T18:19:50.042Z,99.90
2018-08-22T18:22:19.288Z,99.90
2018-08-22T18:24:53.504Z,99.90
2018-08-22T18:27:23.211Z,99.90
2018-08-22T18:29:52.497Z,99.90
2018-08-22T18:32:21.804Z,99.90
2018-08-22T18:35:04.502Z,99.90
2018-08-22T18:37:33.912Z,99.90
2018-08-22T18:40:23.532Z,99.90
2018-08-22T18:42:54.760Z,99.90
2018-08-22T18:45:24.964Z,99.90
2018-08-22T18:47:54.235Z,99.90
2018-08-22T18:50:23.501Z,99.90
2018-08-22T18:52:54.390Z,99.90
2018-08-22T18:55:28.466Z,99.90
2018-08-22T18:57:59.122Z,99.90
2018-08-22T19:00:28.476Z,99.90
2018-08-22T19:02:58.578Z,99.90
2018-08-22T19:05:31.436Z,99.90
2018-08-22T19:08:12.382Z,99.90
2018-08-22T19:10:42.766Z,99.90
2018-08-22T19:13:15.427Z,99.90
2018-08-22T19:15:47.467Z,99.90
2018-08-22T19:18:16.706Z,99.90
2018-08-22T19:20:46.019Z,99.90
2018-08-22T19:23:15.311Z,99.90
2018-08-22T19:25:46.261Z,99.90
2018-08-22T19:28:15.520Z,99.90
2018-08-22T19:30:45.151Z,99.90
2018-08-22T19:33:15.403Z,99.90
2018-08-22T19:35:45.101Z,99.90
2018-08-22T19:38:17.867Z,99.90
2018-08-22T19:40:47.196Z,99.90
2018-08-22T19:43:16.460Z,99.90
2018-08-22T19:45:45.937Z,99.90
2018-08-22T19:48:15.170Z,99.90
2018-08-22T19:50:44.288Z,99.90
2018-08-22T19:53:13.490Z,99.90
2018-08-22T19:55:42.767Z,99.90
2018-08-22T19:58:14.666Z,99.90
2018-08-22T20:00:44.380Z,99.90
2018-08-22T20:03:17.984Z,99.90
2018-08-22T20:05:52.488Z,99.90
2018-08-22T20:08:27.526Z,99.90
2018-08-22T20:10:57.654Z,99.90
2018-08-22T20:13:37.358Z,99.90
2018-08-22T20:16:06.674Z,99.90
2018-08-22T20:18:35.897Z,99.90
2018-08-22T20:21:05.935Z,99.90
2018-08-22T20:23:36.346Z,99.90
2018-08-22T20:26:06.288Z,99.90
2018-08-22T20:28:38.248Z,99.90
2018-08-22T20:31:12.072Z,99.90
2018-08-22T20:33:51.244Z,99.90
2018-08-22T20:36:20.447Z,99.90
2018-08-22T20:38:50.352Z,99.90
2018-08-22T20:41:23.006Z,99.90
2018-08-22T20:43:52.751Z,99.90
2018-08-22T20:46:22.052Z,99.90
2018-08-22T20:48:52.575Z,99.90
2018-08-22T20:51:23.056Z,99.90
2018-08-22T20:53:56.849Z,99.90
2018-08-22T20:56:26.230Z,99.90
2018-08-22T20:58:56.460Z,99.90
2018-08-22T21:01:26.203Z,99.90
2018-08-22T21:03:56.153Z,99.90
2018-08-22T21:06:25.584Z,99.90
2018-08-22T21:08:55.108Z,99.90
2018-08-22T21:11:24.485Z,99.90
2018-08-22T21:13:53.927Z,99.90
2018-08-22T21:16:23.450Z,99.90
2018-08-22T21:18:52.955Z,99.90
2018-08-22T21:21:24.997Z,99.90
2018-08-22T21:23:54.400Z,99.90
2018-08-22T21:26:36.604Z,99.90
2018-08-22T21:29:06.299Z,99.90
2018-08-22T21:31:36.452Z,99.90
2018-08-22T21:34:12.175Z,99.90
2018-08-22T21:36:43.457Z,99.90
2018-08-22T21:39:18.083Z,99.90
2018-08-22T21:41:47.887Z,99.90
2018-08-22T21:44:19.443Z,99.90
2018-08-22T21:46:56.154Z,99.90
2018-08-22T21:49:25.954Z,99.90
2018-08-22T21:51:58.473Z,99.90
2018-08-22T21:54:28.093Z,99.90
2018-08-22T21:56:57.639Z,99.90
2018-08-22T21:59:27.533Z,99.90
2018-08-22T22:02:02.458Z,99.90
2018-08-22T22:04:32.883Z,99.90
2018-08-22T22:07:02.938Z,99.90
2018-08-22T22:09:32.140Z,99.90
2018-08-22T22:12:02.510Z,99.90
2018-08-22T22:14:33.206Z,99.90
2018-08-22T22:17:04.111Z,99.90
2018-08-22T22:19:34.739Z,99.90
2018-08-22T22:22:04.433Z,99.90
2018-08-22T22:24:39.171Z,99.90
2018-08-22T22:27:10.137Z,99.90
2018-08-22T22:29:39.690Z,99.90
2018-08-22T22:32:09.110Z,99.90
2018-08-22T22:34:39.596Z,99.90
2018-08-22T22:37:09.047Z,99.90
2018-08-22T22:39:43.810Z,99.90
2018-08-22T22:42:18.486Z,99.90
2018-08-22T22:44:50.291Z,99.90
2018-08-22T22:47:24.895Z,99.90
2018-08-22T22:49:54.412Z,99.90
2018-08-22T22:52:41.070Z,99.90
2018-08-22T22:55:11.030Z,99.90
2018-08-22T22:57:41.753Z,99.90
2018-08-22T23:00:12.981Z,99.90
2018-08-22T23:02:42.532Z,99.90
2018-08-22T23:05:11.812Z,99.90
2018-08-22T23:07:42.152Z,99.90
2018-08-22T23:10:13.233Z,99.90
2018-08-22T23:12:46.402Z,99.90
2018-08-22T23:15:32.057Z,99.90
2018-08-22T23:18:02.571Z,99.90
2018-08-22T23:20:37.419Z,99.90
2018-08-22T23:23:22.362Z,99.90
2018-08-22T23:25:52.712Z,99.90
2018-08-22T23:28:22.871Z,99.90
2018-08-22T23:30:52.886Z,99.90
2018-08-22T23:33:22.590Z,99.90
2018-08-22T23:35:52.226Z,99.90
2018-08-22T23:38:26.715Z,99.90
2018-08-22T23:40:56.242Z,99.90
2018-08-22T23:43:25.791Z,99.90
2018-08-22T23:45:57.904Z,99.90
2018-08-22T23:48:32.609Z,99.90
2018-08-22T23:51:04.241Z,99.90
2018-08-22T23:53:51.916Z,99.90
2018-08-22T23:56:36.305Z,99.90
2018-08-22T23:59:06.275Z,99.90
